createdAt,value
2018-08-22T00:00:44.617Z,2.67
2018-08-22T00:03:14.172Z,2.57
2018-08-22T00:05:43.740Z,2.20
2018-08-22T00:08:13.244Z,2.60
2018-08-22T00:10:42.773Z,2.30
2018-08-22T00:13:12.520Z,2.23
2018-08-22T00:15:42.073Z,2.90
2018-08-22T00:18:11.634Z,2.10
2018-08-22T00:20:41.276Z,3.50
2018-08-22T00:23:10.836Z,2.30
2018-08-22T00:25:40.376Z,2.57
2018-08-22T00:28:09.952Z,2.70
2018-08-22T00:30:39.493Z,2.43
2018-08-22T00:33:09.396Z,2.73
2018-08-22T00:35:39.219Z,2.60
2018-08-22T00:38:08.759Z,2.40
2018-08-22T00:40:38.293Z,2.20
2018-08-22T00:43:07.840Z,2.90
2018-08-22T00:45:37.430Z,2.33
2018-08-22T00:48:07.047Z,2.57
2018-08-22T00:50:36.698Z,2.17
2018-08-22T00:53:06.204Z,2.63
2018-08-22T00:55:35.862Z,2.77
2018-08-22T00:58:05.391Z,2.57
2018-08-22T01:00:34.922Z,3.27
2018-08-22T01:03:05.853Z,3.43
2018-08-22T01:05:35.449Z,2.80
2018-08-22T01:08:04.964Z,2.73
2018-08-22T01:10:34.560Z,1.83
2018-08-22T01:13:04.144Z,2.13
2018-08-22T01:15:40.228Z,2.10
2018-08-22T01:18:09.791Z,2.20
2018-08-22T01:20:39.412Z,3.00
2018-08-22T01:23:09.044Z,2.40
2018-08-22T01:25:38.711Z,2.40
2018-08-22T01:28:12.362Z,3.60
2018-08-22T01:30:41.796Z,3.20
2018-08-22T01:33:11.227Z,2.30
2018-08-22T01:35:40.624Z,2.37
2018-08-22T01:38:10.052Z,2.80
2018-08-22T01:40:39.525Z,2.30
2018-08-22T01:43:08.895Z,2.33
2018-08-22T01:45:38.344Z,3.50
2018-08-22T01:48:07.742Z,2.37
2018-08-22T01:50:37.238Z,2.30
2018-08-22T01:53:06.763Z,3.07
2018-08-22T01:55:36.257Z,3.10
2018-08-22T01:58:05.875Z,3.50
2018-08-22T02:00:35.572Z,2.70
2018-08-22T02:03:04.988Z,2.30
2018-08-22T02:05:34.437Z,2.73
2018-08-22T02:08:03.862Z,3.00
2018-08-22T02:10:33.307Z,2.93
2018-08-22T02:13:02.727Z,2.50
2018-08-22T02:15:32.210Z,2.30
2018-08-22T02:18:01.702Z,3.27
2018-08-22T02:20:31.187Z,3.03
2018-08-22T02:23:00.608Z,2.60
2018-08-22T02:25:30.014Z,2.80
2018-08-22T02:27:59.457Z,2.87
2018-08-22T02:30:28.917Z,2.80
2018-08-22T02:32:58.360Z,3.47
2018-08-22T02:35:27.898Z,3.10
2018-08-22T02:37:57.364Z,3.00
2018-08-22T02:40:26.774Z,2.53
2018-08-22T02:42:56.194Z,2.23
2018-08-22T02:45:25.610Z,2.50
2018-08-22T02:47:55.037Z,3.00
2018-08-22T02:50:24.540Z,3.00
2018-08-22T02:52:54.940Z,2.80
2018-08-22T02:55:24.341Z,2.40
2018-08-22T02:57:53.744Z,3.27
2018-08-22T03:00:23.186Z,2.73
2018-08-22T03:02:52.600Z,2.47
2018-08-22T03:05:22.058Z,2.53
2018-08-22T03:07:51.493Z,2.80
2018-08-22T03:10:20.953Z,2.63
2018-08-22T03:12:50.406Z,2.20
2018-08-22T03:15:26.440Z,2.90
2018-08-22T03:17:55.837Z,2.77
2018-08-22T03:20:25.240Z,3.00
2018-08-22T03:22:54.897Z,2.60
2018-08-22T03:25:24.302Z,3.20
2018-08-22T03:27:53.745Z,3.20
2018-08-22T03:30:23.295Z,2.47
2018-08-22T03:32:53.380Z,2.70
2018-08-22T03:35:22.828Z,2.90
2018-08-22T03:37:52.271Z,3.67
2018-08-22T03:40:21.739Z,2.37
2018-08-22T03:42:51.150Z,3.10
2018-08-22T03:45:20.660Z,2.80
2018-08-22T03:47:50.046Z,3.30
2018-08-22T03:50:19.530Z,2.80
2018-08-22T03:52:49.150Z,3.10
2018-08-22T03:55:18.564Z,3.90
2018-08-22T03:57:48.069Z,3.30
2018-08-22T04:00:17.733Z,3.00
2018-08-22T04:02:47.185Z,2.73
2018-08-22T04:05:16.586Z,3.37
2018-08-22T04:07:46.202Z,3.30
2018-08-22T04:10:15.605Z,2.87
2018-08-22T04:12:45.048Z,2.77
2018-08-22T04:15:14.518Z,3.23
2018-08-22T04:17:43.948Z,3.30
2018-08-22T04:20:19.715Z,3.90
2018-08-22T04:22:49.137Z,2.87
2018-08-22T04:25:18.574Z,2.80
2018-08-22T04:27:48.165Z,3.40
2018-08-22T04:30:17.593Z,3.03
2018-08-22T04:32:47.043Z,3.13
2018-08-22T04:35:16.492Z,3.30
2018-08-22T04:37:45.959Z,2.83
2018-08-22T04:40:15.391Z,3.10
2018-08-22T04:42:44.829Z,3.43
2018-08-22T04:45:14.238Z,2.80
2018-08-22T04:47:43.675Z,2.87
2018-08-22T04:50:13.105Z,2.90
2018-08-22T04:52:42.549Z,2.70
2018-08-22T04:55:12.033Z,2.83
2018-08-22T04:57:41.500Z,4.10
2018-08-22T05:00:11.241Z,2.57
2018-08-22T05:02:40.720Z,3.43
2018-08-22T05:05:10.455Z,3.30
2018-08-22T05:07:39.908Z,2.60
2018-08-22T05:10:09.361Z,3.40
2018-08-22T05:12:38.797Z,2.40
2018-08-22T05:15:08.229Z,3.17
2018-08-22T05:17:37.644Z,3.30
2018-08-22T05:20:07.105Z,2.83
2018-08-22T05:22:36.523Z,2.40
2018-08-22T05:25:06.016Z,2.77
2018-08-22T05:27:35.601Z,2.70
2018-08-22T05:30:05.825Z,3.00
2018-08-22T05:32:35.301Z,2.97
2018-08-22T05:35:05.224Z,2.00
2018-08-22T05:37:34.669Z,3.17
2018-08-22T05:40:04.155Z,2.43
2018-08-22T05:42:33.661Z,2.43
2018-08-22T05:45:03.277Z,2.77
2018-08-22T05:47:32.697Z,2.30
2018-08-22T05:50:02.116Z,2.40
2018-08-22T05:52:31.765Z,2.60
2018-08-22T05:55:01.206Z,3.20
2018-08-22T05:57:30.814Z,2.90
2018-08-22T06:00:00.172Z,2.40
2018-08-22T06:02:29.592Z,3.07
2018-08-22T06:04:59.182Z,2.50
2018-08-22T06:07:28.631Z,2.53
2018-08-22T06:09:58.080Z,2.63
2018-08-22T06:12:27.559Z,3.03
2018-08-22T06:14:56.965Z,2.80
2018-08-22T06:17:26.445Z,3.43
2018-08-22T06:19:55.892Z,3.80
2018-08-22T06:22:25.297Z,2.03
2018-08-22T06:24:54.725Z,1.97
2018-08-22T06:27:24.214Z,2.33
2018-08-22T06:29:53.605Z,2.40
2018-08-22T06:32:23.021Z,2.70
2018-08-22T06:34:52.443Z,2.37
2018-08-22T06:37:21.858Z,2.37
2018-08-22T06:39:51.302Z,2.60
2018-08-22T06:42:20.804Z,2.23
2018-08-22T06:44:50.724Z,2.40
2018-08-22T06:47:20.216Z,2.80
2018-08-22T06:49:49.667Z,3.10
2018-08-22T06:52:19.281Z,2.63
2018-08-22T06:54:48.728Z,3.00
2018-08-22T06:57:18.173Z,2.20
2018-08-22T06:59:47.592Z,4.27
2018-08-22T07:02:17.024Z,2.20
2018-08-22T07:04:46.480Z,2.30
2018-08-22T07:07:15.987Z,2.70
2018-08-22T07:09:45.408Z,3.07
2018-08-22T07:12:15.026Z,1.97
2018-08-22T07:14:44.441Z,2.40
2018-08-22T07:17:13.853Z,2.23
2018-08-22T07:19:43.333Z,1.80
2018-08-22T07:22:12.970Z,2.40
2018-08-22T07:24:42.629Z,2.67
2018-08-22T07:27:12.260Z,2.43
2018-08-22T07:29:41.776Z,2.70
2018-08-22T07:32:11.325Z,2.27
2018-08-22T07:34:40.849Z,2.77
2018-08-22T07:37:10.565Z,2.60
2018-08-22T07:39:40.056Z,2.50
2018-08-22T07:42:09.710Z,3.00
2018-08-22T07:44:39.116Z,2.47
2018-08-22T07:47:09.202Z,2.10
2018-08-22T07:49:38.744Z,3.93
2018-08-22T07:52:08.771Z,2.83
2018-08-22T07:54:44.714Z,2.40
2018-08-22T07:57:15.643Z,2.40
2018-08-22T07:59:45.355Z,2.40
2018-08-22T08:02:14.792Z,2.80
2018-08-22T08:04:44.264Z,2.30
2018-08-22T08:07:13.993Z,1.90
2018-08-22T08:09:44.148Z,3.00
2018-08-22T08:12:13.629Z,2.50
2018-08-22T08:14:45.041Z,2.57
2018-08-22T08:17:14.576Z,2.10
2018-08-22T08:19:43.995Z,2.50
2018-08-22T08:22:13.495Z,2.20
2018-08-22T08:24:43.006Z,1.83
2018-08-22T08:27:12.462Z,2.30
2018-08-22T08:29:41.900Z,2.23
2018-08-22T08:32:11.332Z,2.10
2018-08-22T08:34:40.823Z,1.80
2018-08-22T08:37:10.289Z,1.60
2018-08-22T08:39:39.735Z,1.10
2018-08-22T08:42:09.229Z,1.60
2018-08-22T08:44:38.781Z,1.30
2018-08-22T08:47:08.227Z,1.47
2018-08-22T08:49:37.737Z,1.40
2018-08-22T08:52:07.112Z,1.23
2018-08-22T08:54:36.553Z,1.30
2018-08-22T08:57:06.011Z,0.80
2018-08-22T08:59:35.626Z,1.00
2018-08-22T09:02:05.106Z,1.23
2018-08-22T09:04:34.602Z,1.30
2018-08-22T09:07:04.224Z,1.17
2018-08-22T09:09:33.788Z,1.20
2018-08-22T09:12:03.277Z,1.50
2018-08-22T09:14:32.761Z,0.90
2018-08-22T09:17:02.174Z,1.20
2018-08-22T09:19:31.614Z,1.10
2018-08-22T09:22:01.062Z,1.33
2018-08-22T09:24:30.537Z,1.20
2018-08-22T09:26:59.933Z,1.83
2018-08-22T09:29:29.387Z,1.10
2018-08-22T09:31:58.823Z,1.20
2018-08-22T09:34:28.295Z,1.67
2018-08-22T09:36:57.767Z,1.37
2018-08-22T09:39:27.268Z,0.97
2018-08-22T09:41:56.646Z,1.93
2018-08-22T09:44:26.105Z,1.20
2018-08-22T09:46:55.531Z,0.90
2018-08-22T09:49:25.008Z,1.83
2018-08-22T09:51:54.433Z,1.10
2018-08-22T09:54:23.962Z,1.00
2018-08-22T09:56:53.376Z,0.80
2018-08-22T09:59:22.830Z,1.40
2018-08-22T10:01:52.252Z,1.03
2018-08-22T10:04:21.721Z,1.47
2018-08-22T10:06:51.853Z,1.20
2018-08-22T10:09:22.425Z,1.30
2018-08-22T10:11:51.947Z,1.20
2018-08-22T10:14:21.390Z,1.00
2018-08-22T10:16:50.899Z,1.20
2018-08-22T10:19:20.392Z,1.10
2018-08-22T10:21:49.807Z,0.90
2018-08-22T10:24:19.252Z,0.93
2018-08-22T10:26:48.675Z,0.80
2018-08-22T10:29:18.206Z,1.60
2018-08-22T10:31:47.604Z,0.70
2018-08-22T10:34:17.012Z,1.17
2018-08-22T10:36:46.418Z,0.97
2018-08-22T10:39:15.815Z,1.13
2018-08-22T10:41:45.283Z,0.90
2018-08-22T10:44:15.141Z,1.37
2018-08-22T10:46:44.564Z,0.73
2018-08-22T10:49:13.992Z,1.37
2018-08-22T10:51:43.437Z,1.70
2018-08-22T10:54:12.841Z,1.43
2018-08-22T10:56:42.240Z,1.10
2018-08-22T10:59:11.623Z,1.40
2018-08-22T11:01:41.029Z,1.77
2018-08-22T11:04:10.413Z,1.57
2018-08-22T11:06:39.854Z,1.30
2018-08-22T11:09:10.409Z,1.10
2018-08-22T11:11:39.910Z,1.33
2018-08-22T11:14:09.640Z,1.20
2018-08-22T11:16:39.067Z,1.00
2018-08-22T11:19:08.475Z,0.90
2018-08-22T11:21:54.820Z,1.07
2018-08-22T11:24:41.222Z,1.30
2018-08-22T11:27:27.519Z,1.10
2018-08-22T11:30:13.845Z,1.70
2018-08-22T11:33:00.478Z,1.20
2018-08-22T11:35:28.277Z,1.23
2018-08-22T11:37:57.705Z,1.50
2018-08-22T11:40:27.133Z,1.23
2018-08-22T11:42:56.553Z,1.30
2018-08-22T11:45:25.986Z,1.20
2018-08-22T11:47:55.437Z,1.80
2018-08-22T11:50:24.840Z,1.40
2018-08-22T11:52:54.257Z,1.77
2018-08-22T11:55:23.824Z,1.20
2018-08-22T11:57:53.212Z,1.43
2018-08-22T12:00:22.632Z,1.30
2018-08-22T12:02:52.241Z,1.67
2018-08-22T12:05:21.649Z,1.80
2018-08-22T12:07:51.529Z,1.90
2018-08-22T12:10:21.071Z,1.23
2018-08-22T12:12:50.513Z,1.50
2018-08-22T12:15:20.015Z,1.60
2018-08-22T12:17:50.777Z,1.03
2018-08-22T12:20:20.801Z,1.10
2018-08-22T12:22:50.244Z,1.50
2018-08-22T12:25:19.880Z,4.43
2018-08-22T12:27:49.302Z,1.67
2018-08-22T12:30:18.805Z,2.30
2018-08-22T12:32:48.240Z,3.93
2018-08-22T12:35:17.644Z,1.60
2018-08-22T12:37:47.085Z,1.50
2018-08-22T12:40:16.463Z,1.50
2018-08-22T12:42:45.834Z,1.27
2018-08-22T12:45:15.232Z,1.03
2018-08-22T12:47:44.693Z,1.43
2018-08-22T12:50:16.192Z,1.53
2018-08-22T12:52:45.648Z,1.80
2018-08-22T12:55:15.051Z,2.07
2018-08-22T12:57:44.488Z,1.50
2018-08-22T13:00:13.927Z,1.23
2018-08-22T13:02:43.520Z,2.43
2018-08-22T13:05:12.988Z,1.40
2018-08-22T13:07:42.428Z,1.93
2018-08-22T13:10:11.839Z,1.80
2018-08-22T13:12:41.255Z,1.13
2018-08-22T13:15:11.178Z,1.60
2018-08-22T13:17:40.570Z,1.90
2018-08-22T13:20:09.997Z,1.57
2018-08-22T13:22:39.585Z,1.83
2018-08-22T13:25:09.012Z,1.90
2018-08-22T13:27:38.428Z,1.83
2018-08-22T13:30:08.364Z,1.53
2018-08-22T13:32:37.818Z,1.60
2018-08-22T13:35:07.989Z,1.97
2018-08-22T13:37:37.770Z,1.37
2018-08-22T13:40:07.293Z,2.03
2018-08-22T13:42:36.863Z,1.70
2018-08-22T13:45:07.173Z,1.93
2018-08-22T13:47:36.668Z,1.40
2018-08-22T13:50:06.149Z,1.60
2018-08-22T13:52:35.608Z,1.30
2018-08-22T13:55:05.177Z,1.53
2018-08-22T13:57:34.611Z,1.23
2018-08-22T14:00:04.334Z,1.43
2018-08-22T14:02:33.740Z,1.70
2018-08-22T14:05:03.168Z,1.90
2018-08-22T14:07:32.744Z,1.50
2018-08-22T14:10:02.255Z,1.50
2018-08-22T14:12:31.651Z,1.50
2018-08-22T14:15:01.091Z,1.60
2018-08-22T14:17:30.528Z,1.20
2018-08-22T14:19:59.959Z,1.87
2018-08-22T14:22:29.490Z,1.30
2018-08-22T14:24:58.853Z,1.53
2018-08-22T14:27:28.504Z,1.80
2018-08-22T14:29:57.949Z,1.37
2018-08-22T14:32:27.448Z,1.30
2018-08-22T14:34:56.881Z,1.60
2018-08-22T14:37:26.317Z,1.47
2018-08-22T14:39:55.722Z,1.37
2018-08-22T14:42:25.185Z,1.87
2018-08-22T14:44:54.700Z,1.30
2018-08-22T14:47:24.067Z,1.30
2018-08-22T14:49:53.478Z,1.40
2018-08-22T14:52:22.918Z,1.40
2018-08-22T14:54:52.412Z,1.60
2018-08-22T14:57:22.356Z,1.20
2018-08-22T14:59:51.760Z,1.33
2018-08-22T15:02:21.237Z,1.27
2018-08-22T15:04:50.605Z,1.20
2018-08-22T15:07:20.164Z,1.27
2018-08-22T15:09:49.592Z,1.20
2018-08-22T15:12:19.062Z,1.33
2018-08-22T15:14:48.704Z,1.33
2018-08-22T15:17:18.300Z,1.30
2018-08-22T15:19:47.740Z,1.73
2018-08-22T15:22:17.211Z,1.30
2018-08-22T15:24:46.744Z,1.60
2018-08-22T15:27:16.235Z,0.97
2018-08-22T15:29:45.687Z,1.53
2018-08-22T15:32:15.101Z,1.73
2018-08-22T15:34:52.488Z,1.30
2018-08-22T15:37:22.778Z,1.30
2018-08-22T15:39:52.228Z,1.37
2018-08-22T15:42:21.680Z,1.03
2018-08-22T15:44:51.218Z,2.60
2018-08-22T15:47:20.720Z,1.87
2018-08-22T15:49:50.181Z,2.63
2018-08-22T15:52:19.580Z,2.03
2018-08-22T15:55:06.085Z,1.17
2018-08-22T15:57:53.493Z,2.10
2018-08-22T16:00:47.089Z,2.00
2018-08-22T16:03:16.523Z,2.37
2018-08-22T16:05:46.768Z,1.40
2018-08-22T16:08:19.705Z,1.13
2018-08-22T16:10:49.098Z,1.93
2018-08-22T16:13:23.641Z,1.57
2018-08-22T16:15:54.337Z,1.50
2018-08-22T16:18:23.926Z,1.63
2018-08-22T16:21:00.307Z,1.53
2018-08-22T16:23:32.090Z,1.60
2018-08-22T16:26:04.628Z,1.73
2018-08-22T16:28:55.930Z,1.60
2018-08-22T16:31:33.172Z,1.70
2018-08-22T16:34:02.720Z,1.87
2018-08-22T16:36:32.333Z,1.47
2018-08-22T16:39:02.368Z,2.00
2018-08-22T16:41:31.830Z,1.37
2018-08-22T16:44:01.267Z,1.53
2018-08-22T16:46:30.737Z,2.00
2018-08-22T16:49:00.256Z,2.33
2018-08-22T16:51:29.740Z,1.23
2018-08-22T16:54:04.558Z,5.03
2018-08-22T16:56:34.978Z,2.77
2018-08-22T16:59:09.448Z,1.37
2018-08-22T17:01:42.640Z,1.97
2018-08-22T17:04:12.053Z,2.27
2018-08-22T17:06:41.537Z,1.20
2018-08-22T17:09:11.685Z,1.60
2018-08-22T17:11:41.384Z,1.73
2018-08-22T17:14:10.880Z,1.27
2018-08-22T17:16:40.297Z,3.03
2018-08-22T17:19:09.756Z,2.00
2018-08-22T17:21:39.245Z,1.97
2018-08-22T17:24:08.657Z,1.93
2018-08-22T17:26:38.112Z,1.73
2018-08-22T17:29:07.603Z,2.40
2018-08-22T17:31:37.033Z,1.37
2018-08-22T17:34:06.509Z,2.40
2018-08-22T17:36:35.962Z,2.80
2018-08-22T17:39:07.018Z,2.87
2018-08-22T17:41:36.482Z,2.57
2018-08-22T17:44:09.791Z,2.83
2018-08-22T17:46:47.867Z,3.37
2018-08-22T17:49:17.689Z,2.43
2018-08-22T17:52:00.012Z,2.40
2018-08-22T17:54:29.540Z,3.00
2018-08-22T17:57:14.710Z,2.77
2018-08-22T17:59:44.919Z,2.33
2018-08-22T18:02:14.435Z,2.90
2018-08-22T18:05:03.932Z,2.90
2018-08-22T18:07:33.336Z,3.30
2018-08-22T18:10:04.269Z,3.13
2018-08-22T18:12:33.811Z,3.23
2018-08-22T18:15:04.200Z,2.90
2018-08-22T18:17:33.849Z,3.43
2018-08-22T18:20:03.407Z,3.20
2018-08-22T18:22:35.772Z,3.30
2018-08-22T18:25:05.848Z,3.20
2018-08-22T18:27:35.371Z,4.53
2018-08-22T18:30:04.903Z,4.10
2018-08-22T18:32:34.413Z,4.70
2018-08-22T18:35:10.061Z,4.43
2018-08-22T18:37:40.090Z,3.77
2018-08-22T18:40:26.696Z,4.20
2018-08-22T18:42:59.081Z,3.90
2018-08-22T18:45:29.063Z,4.30
2018-08-22T18:47:59.288Z,5.10
2018-08-22T18:50:28.748Z,5.10
2018-08-22T18:52:59.317Z,6.67
2018-08-22T18:55:30.955Z,4.77
2018-08-22T18:58:02.182Z,4.20
2018-08-22T19:00:35.176Z,4.23
2018-08-22T19:03:04.614Z,4.90
2018-08-22T19:05:35.194Z,5.10
2018-08-22T19:08:12.197Z,4.70
2018-08-22T19:10:42.918Z,5.27
2018-08-22T19:13:16.382Z,4.70
2018-08-22T19:15:53.173Z,5.80
2018-08-22T19:18:22.904Z,4.93
2018-08-22T19:20:57.979Z,6.47
2018-08-22T19:23:27.493Z,6.23
2018-08-22T19:25:57.581Z,5.77
2018-08-22T19:28:27.021Z,5.43
2018-08-22T19:30:56.490Z,5.53
2018-08-22T19:33:27.124Z,5.50
2018-08-22T19:35:56.791Z,5.80
2018-08-22T19:38:27.672Z,6.90
2018-08-22T19:40:57.909Z,5.47
2018-08-22T19:43:27.393Z,6.40
2018-08-22T19:45:56.882Z,5.63
2018-08-22T19:48:26.340Z,5.50
2018-08-22T19:50:55.777Z,7.63
2018-08-22T19:53:25.236Z,6.77
2018-08-22T19:55:54.641Z,8.07
2018-08-22T19:58:28.180Z,5.07
2018-08-22T20:00:59.352Z,4.53
2018-08-22T20:03:34.528Z,4.97
2018-08-22T20:06:03.974Z,6.63
2018-08-22T20:08:37.317Z,6.00
2018-08-22T20:11:07.389Z,6.40
2018-08-22T20:13:50.233Z,6.47
2018-08-22T20:16:21.004Z,5.50
2018-08-22T20:18:53.852Z,6.43
2018-08-22T20:21:31.188Z,8.07
2018-08-22T20:24:01.258Z,9.77
2018-08-22T20:26:31.048Z,8.60
2018-08-22T20:29:01.653Z,8.53
2018-08-22T20:31:31.411Z,9.43
2018-08-22T20:34:12.984Z,9.50
2018-08-22T20:36:46.446Z,10.37
2018-08-22T20:39:16.135Z,10.10
2018-08-22T20:41:45.796Z,9.53
2018-08-22T20:44:18.172Z,8.13
2018-08-22T20:46:48.901Z,9.50
2018-08-22T20:49:20.598Z,8.37
2018-08-22T20:51:50.324Z,9.03
2018-08-22T20:54:23.989Z,8.80
2018-08-22T20:56:58.522Z,9.63
2018-08-22T20:59:28.200Z,9.73
2018-08-22T21:02:07.015Z,8.53
2018-08-22T21:04:36.881Z,10.70
2018-08-22T21:07:06.666Z,10.60
2018-08-22T21:09:36.093Z,10.07
2018-08-22T21:12:06.033Z,9.50
2018-08-22T21:14:35.483Z,8.47
2018-08-22T21:17:05.228Z,8.63
2018-08-22T21:19:34.667Z,9.57
2018-08-22T21:22:11.417Z,8.80
2018-08-22T21:24:41.196Z,9.07
2018-08-22T21:27:10.581Z,8.23
2018-08-22T21:29:40.086Z,7.20
2018-08-22T21:32:09.792Z,7.20
2018-08-22T21:34:39.357Z,7.23
2018-08-22T21:37:28.060Z,7.33
2018-08-22T21:39:57.555Z,8.07
2018-08-22T21:42:34.551Z,7.20
2018-08-22T21:45:04.351Z,7.17
2018-08-22T21:47:33.823Z,7.20
2018-08-22T21:50:03.371Z,6.97
2018-08-22T21:52:53.170Z,6.37
2018-08-22T21:55:30.784Z,6.20
2018-08-22T21:58:00.252Z,6.23
2018-08-22T22:00:30.375Z,5.67
2018-08-22T22:03:00.225Z,5.73
2018-08-22T22:05:43.442Z,5.43
2018-08-22T22:08:13.014Z,5.23
2018-08-22T22:10:42.457Z,5.20
2018-08-22T22:13:12.408Z,5.70
2018-08-22T22:15:45.878Z,4.50
2018-08-22T22:18:15.326Z,4.63
2018-08-22T22:20:50.057Z,4.70
2018-08-22T22:23:19.477Z,5.07
2018-08-22T22:25:48.919Z,5.93
2018-08-22T22:28:18.876Z,4.90
2018-08-22T22:30:48.337Z,4.20
2018-08-22T22:33:17.756Z,4.27
2018-08-22T22:35:47.233Z,3.70
2018-08-22T22:38:16.806Z,4.80
2018-08-22T22:40:46.312Z,4.00
2018-08-22T22:43:15.813Z,3.73
2018-08-22T22:45:45.379Z,4.70
2018-08-22T22:48:19.303Z,3.97
2018-08-22T22:50:48.693Z,4.10
2018-08-22T22:53:18.193Z,3.70
2018-08-22T22:55:47.639Z,4.50
2018-08-22T22:58:17.091Z,3.90
2018-08-22T23:00:46.522Z,4.87
2018-08-22T23:03:16.060Z,4.90
2018-08-22T23:05:45.558Z,4.87
2018-08-22T23:08:14.976Z,9.90
2018-08-22T23:10:44.403Z,5.93
2018-08-22T23:13:14.069Z,4.60
2018-08-22T23:15:43.990Z,4.70
2018-08-22T23:18:13.496Z,5.60
2018-08-22T23:20:43.768Z,5.70
2018-08-22T23:23:29.686Z,5.27
2018-08-22T23:26:08.186Z,4.67
2018-08-22T23:28:37.648Z,4.47
2018-08-22T23:31:07.056Z,3.93
2018-08-22T23:33:37.040Z,4.03
2018-08-22T23:36:06.651Z,4.67
2018-08-22T23:38:37.489Z,3.80
2018-08-22T23:41:06.961Z,5.07
2018-08-22T23:43:42.138Z,4.00
2018-08-22T23:46:12.436Z,4.63
2018-08-22T23:48:42.117Z,4.90
2018-08-22T23:51:13.641Z,4.77
2018-08-22T23:53:45.908Z,4.77
2018-08-22T23:56:22.903Z,5.50
2018-08-22T23:58:52.864Z,5.47
